Time;durP1;ratioP1;P1;durP2;ratioP2;P2;SDS_P1;SDS_P2;PMS_P1;PMS_P2;Temp;Humidity;BMP_temperature;BMP_pressure;BME280_temperature;BME280_humidity;BME280_pressure;Samples;Min_cycle;Max_cycle;Signal;HPM_P1;HPM_P2
2021/12/05 00:19:42;;;;;;;30.90;15.43;;;;;;;;;;5033920;28;20048;-69
2021/12/05 00:24:44;;;;;;;32.97;16.23;;;;;;;;;;5030599;28;20034;-69
2021/12/05 00:27:19;;;;;;;33.72;15.77;;;;;;;;;;5040286;28;20029;-70
2021/12/05 00:32:27;;;;;;;36.20;17.30;;;;;;;;;;5030547;28;20032;-69
2021/12/05 01:00:02;;;;;;;34.90;16.58;;;;;;;;;;5023926;28;20531;-65
2021/12/05 01:10:15;;;;;;;32.95;17.25;;;0.70;99.90;;;;;;5004006;28;20120;-65
2021/12/05 01:13:14;;;;;;;32.83;18.23;;;0.20;99.90;;;;;;5029321;28;20111;-65
2021/12/05 01:15:36;;;;;;;34.22;17.85;;;0.40;99.90;;;;;;5027990;28;20110;-65
2021/12/05 01:18:10;;;;;;;33.97;17.88;;;0.40;99.90;;;;;;5034335;28;20033;-65
2021/12/05 01:20:42;;;;;;;30.70;16.45;;;;;;;;;;5032837;28;20037;-66
2021/12/05 01:23:14;;;;;;;29.38;16.15;;;;;;;;;;5028675;28;20021;-66
2021/12/05 01:33:41;;;;;;;;;;;;;;;;;;5029264;28;20065;-66
2021/12/05 01:59:58;;;;;;;30.65;15.43;;;;;;;;;;5031546;28;20144;-67
2021/12/05 02:16:06;;;;;;;30.42;15.18;;;;;;;;;;4999653;28;19920;-66
2021/12/05 02:29:33;;;;;;;31.98;15.20;;;;;;;;;;5034774;28;20699;-66
2021/12/05 02:42:57;;;;;;;36.13;16.65;;;;;;;;;;5028765;28;20029;-65
2021/12/05 02:45:24;;;;;;;31.05;16.65;;;;;;;;;;5025315;28;20741;-65
2021/12/05 02:47:53;;;;;;;32.90;16.48;;;;;;;;;;5033678;28;20029;-65
2021/12/05 02:50:19;;;;;;;30.73;14.77;;;;;;;;;;5036030;28;20917;-65
2021/12/05 02:52:46;;;;;;;29.80;15.40;;;;;;;;;;5031312;28;20132;-65
2021/12/05 02:55:13;;;;;;;31.15;16.55;;;;;;;;;;5025872;28;20029;-65
2021/12/05 03:00:12;;;;;;;29.30;15.18;;;;;;;;;;5035407;28;20039;-65
2021/12/05 03:02:42;;;;;;;28.02;14.52;;;;;;;;;;5033871;28;20111;-65
2021/12/05 03:05:11;;;;;;;32.72;15.75;;;;;;;;;;5024910;28;20167;-65
2021/12/05 03:07:41;;;;;;;33.30;16.70;;;;;;;;;;5026419;28;20478;-66
2021/12/05 03:10:08;;;;;;;34.72;15.63;;;;;;;;;;5032878;28;20029;-65
2021/12/05 03:12:35;;;;;;;31.33;15.98;;;;;;;;;;5031603;28;20500;-66
2021/12/05 03:15:01;;;;;;;32.92;16.13;;;;;;;;;;5030353;28;20114;-65
2021/12/05 03:17:27;;;;;;;32.28;15.65;;;;;;;;;;5009400;28;20032;-66
2021/12/05 03:19:53;;;;;;;29.05;15.25;;;;;;;;;;5037089;28;20037;-66
2021/12/05 03:22:19;;;;;;;31.35;15.88;;;;;;;;;;5028375;28;20152;-66
2021/12/05 03:24:45;;;;;;;32.33;15.90;;;;;;;;;;5027514;28;21228;-66
2021/12/05 03:27:12;;;;;;;30.80;15.27;;;;;;;;;;5009117;28;20068;-66
2021/12/05 03:29:38;;;;;;;32.53;15.60;;;;;;;;;;5038484;28;20032;-66
2021/12/05 03:32:04;;;;;;;32.45;15.90;;;;;;;;;;5034250;28;20052;-67
2021/12/05 03:34:30;;;;;;;28.35;14.70;;;;;;;;;;5033424;28;20029;-66
2021/12/05 03:36:59;;;;;;;31.70;14.63;;;1.20;99.90;;;;;;5027199;28;20026;-66
2021/12/05 03:39:29;;;;;;;28.40;14.57;;;;;;;;;;5037137;28;20029;-66
2021/12/05 03:41:55;;;;;;;27.75;14.10;;;;;;;;;;5039185;28;20026;-67
2021/12/05 03:44:21;;;;;;;27.65;14.43;;;;;;;;;;5033432;28;20256;-67
2021/12/05 03:46:48;;;;;;;28.23;14.38;;;;;;;;;;5028855;28;20037;-66
2021/12/05 03:49:14;;;;;;;29.27;14.27;;;;;;;;;;5033044;28;20486;-67
2021/12/05 03:51:42;;;;;;;30.10;15.30;;;;;;;;;;5035504;28;20026;-66
2021/12/05 03:54:09;;;;;;;29.92;14.73;;;;;;;;;;5018042;28;20105;-66
2021/12/05 03:56:35;;;;;;;30.92;15.32;;;;;;;;;;5031375;28;20465;-67
2021/12/05 03:59:02;;;;;;;30.02;15.25;;;;;;;;;;5022459;28;20113;-67
2021/12/05 04:01:29;;;;;;;31.60;15.02;;;;;;;;;;5039799;28;20029;-66
2021/12/05 04:03:55;;;;;;;32.97;15.68;;;;;;;;;;5014926;28;20041;-66
2021/12/05 04:06:23;;;;;;;31.10;15.45;;;;;;;;;;5029837;28;20033;-66
2021/12/05 04:08:51;;;;;;;30.67;13.32;;;;;;;;;;5034783;28;20033;-66
2021/12/05 04:11:18;;;;;;;29.92;13.95;;;;;;;;;;5038636;28;20029;-67
2021/12/05 04:13:44;;;;;;;31.00;15.07;;;;;;;;;;5035642;28;20025;-66
2021/12/05 04:16:10;;;;;;;29.90;14.43;;;;;;;;;;5030322;28;20057;-66
2021/12/05 04:18:36;;;;;;;31.50;14.43;;;;;;;;;;5031299;28;20033;-66
2021/12/05 04:21:02;;;;;;;34.10;16.92;;;;;;;;;;5038728;28;20479;-66
2021/12/05 04:23:28;;;;;;;30.98;15.38;;;;;;;;;;5035286;28;20029;-66
2021/12/05 04:25:55;;;;;;;30.77;15.52;;;;;;;;;;5030633;28;20079;-66
2021/12/05 04:28:21;;;;;;;28.48;15.05;;;;;;;;;;5034802;28;20033;-66
2021/12/05 04:30:48;;;;;;;33.28;15.65;;;;;;;;;;5022616;28;20017;-66
2021/12/05 04:33:14;;;;;;;36.42;16.48;;;;;;;;;;5033158;28;20053;-67
2021/12/05 04:35:42;;;;;;;32.70;15.57;;;;;;;;;;5031801;28;20757;-66
2021/12/05 04:38:08;;;;;;;30.92;14.43;;;;;;;;;;5029692;28;20176;-66
2021/12/05 04:40:34;;;;;;;30.38;14.57;;;;;;;;;;5040490;28;20025;-66
2021/12/05 04:43:02;;;;;;;31.25;14.75;;;;;;;;;;5038326;28;20047;-66
2021/12/05 04:45:29;;;;;;;32.03;15.82;;;;;;;;;;5013187;28;20029;-66
2021/12/05 04:47:58;;;;;;;32.47;15.02;;;;;;;;;;5010752;28;20021;-66
2021/12/05 04:50:24;;;;;;;28.58;14.10;;;;;;;;;;5036921;28;20052;-66
2021/12/05 04:52:54;;;;;;;34.30;15.77;;;;;;;;;;5037452;28;20112;-66
2021/12/05 04:55:20;;;;;;;33.00;14.50;;;;;;;;;;5032403;28;20051;-66
2021/12/05 04:57:46;;;;;;;34.88;16.23;;;;;;;;;;5027970;28;20036;-66
2021/12/05 05:00:12;;;;;;;34.42;16.38;;;;;;;;;;5033081;28;20612;-66
2021/12/05 05:02:38;;;;;;;33.97;16.05;;;;;;;;;;5035967;28;20579;-66
2021/12/05 05:05:04;;;;;;;34.88;15.52;;;;;;;;;;5034334;28;20034;-66
2021/12/05 05:07:30;;;;;;;37.80;16.45;;;;;;;;;;5030266;28;20033;-66
2021/12/05 05:09:56;;;;;;;30.52;14.05;;;;;;;;;;5039161;28;20038;-66
2021/12/05 05:12:22;;;;;;;32.60;15.07;;;;;;;;;;5038928;28;20513;-66
2021/12/05 05:14:50;;;;;;;40.88;15.60;;;;;;;;;;5031380;28;20026;-66
2021/12/05 05:17:16;;;;;;;35.92;16.15;;;;;;;;;;5028820;28;20037;-66
2021/12/05 05:19:48;;;;;;;41.10;16.02;;;;;;;;;;5035938;28;20036;-66
2021/12/05 05:23:00;;;;;;;32.53;14.30;;;;;;;;;;5034944;28;20228;-66
2021/12/05 05:26:02;;;;;;;59.90;24.10;;;;;;;;;;5033181;28;20088;-66
2021/12/05 05:52:00;;;;;;;43.15;17.92;;;;;;;;;;5041373;28;20033;-66
2021/12/05 05:54:27;;;;;;;39.85;16.98;;;;;;;;;;5032768;28;20061;-66
2021/12/05 05:56:58;;;;;;;44.55;17.85;;;;;;;;;;5030166;28;20025;-66
2021/12/05 05:59:29;;;;;;;46.03;17.92;;;;;;;;;;5023913;28;20041;-67
2021/12/05 06:03:19;;;;;;;44.55;18.40;;;1.60;99.90;;;;;;5028493;28;20079;-66
2021/12/05 06:04:43;;;;;;;42.15;18.63;;;;;;;;;;5022483;28;20057;-66
2021/12/05 06:07:09;;;;;;;55.03;20.00;;;;;;;;;;5024010;28;20057;-65
2021/12/05 06:09:35;;;;;;;49.33;21.30;;;;;;;;;;5026142;28;20029;-66
2021/12/05 06:12:02;;;;;;;46.28;19.85;;;;;;;;;;5032435;28;20385;-65
2021/12/05 06:14:29;;;;;;;39.65;17.80;;;;;;;;;;5032241;28;20053;-65
2021/12/05 06:16:55;;;;;;;41.67;18.95;;;;;;;;;;5025253;28;20037;-64
2021/12/05 06:19:21;;;;;;;41.05;16.90;;;;;;;;;;5012972;28;20251;-65
2021/12/05 06:21:49;;;;;;;50.47;20.30;;;;;;;;;;5034561;28;20033;-65
2021/12/05 06:24:15;;;;;;;48.80;19.23;;;;;;;;;;5027555;28;20038;-66
2021/12/05 06:26:42;;;;;;;41.67;17.13;;;;;;;;;;5024052;28;20072;-65
2021/12/05 06:29:15;;;;;;;105.13;35.22;;;;;;;;;;5021878;28;20536;-65
2021/12/05 06:40:16;;;;;;;42.47;17.70;;;;;;;;;;5016679;28;20040;-65
2021/12/05 06:47:56;;;;;;;44.70;17.60;;;;;;;;;;5015612;28;20045;-65
2021/12/05 06:50:22;;;;;;;38.08;16.75;;;;;;;;;;5024076;28;20037;-65
2021/12/05 06:52:48;;;;;;;34.75;16.05;;;;;;;;;;5026575;28;20762;-64
2021/12/05 06:55:14;;;;;;;33.47;15.65;;;;;;;;;;5029192;28;20030;-65
2021/12/05 06:57:40;;;;;;;38.20;17.25;;;;;;;;;;5022402;28;20481;-65
2021/12/05 07:00:07;;;;;;;37.58;16.63;;;;;;;;;;5017004;28;20623;-65
2021/12/05 07:02:33;;;;;;;42.65;18.13;;;;;;;;;;5037516;28;20068;-65
2021/12/05 07:05:27;;;;;;;39.92;18.00;;;;;;;;;;5025339;28;20036;-65
2021/12/05 07:07:53;;;;;;;44.00;18.38;;;;;;;;;;5028987;28;20036;-65
2021/12/05 07:10:20;;;;;;;39.10;16.45;;;;;;;;;;5026884;28;20025;-65
2021/12/05 07:15:37;;;;;;;43.83;17.13;;;;;;;;;;5028792;28;20159;-65
2021/12/05 07:23:40;;;;;;;44.70;18.25;;;;;;;;;;5031968;28;20116;-81
2021/12/05 07:26:12;;;;;;;41.40;18.52;;;;;;;;;;5025027;28;20033;-83
2021/12/05 07:42:24;;;;;;;48.78;19.02;;;;;;;;;;5030040;28;20041;-65
2021/12/05 07:44:50;;;;;;;41.30;17.33;;;;;;;;;;5022042;28;20044;-65
2021/12/05 07:47:19;;;;;;;46.05;18.08;;;;;;;;;;5016044;28;20049;-65
2021/12/05 07:49:45;;;;;;;48.10;18.88;;;1.60;99.90;;;;;;5022092;28;20401;-65
2021/12/05 07:52:16;;;;;;;48.28;18.88;;;;;;;;;;5025959;28;20025;-72
2021/12/05 07:54:46;;;;;;;47.80;19.33;;;1.10;99.90;;;;;;5035910;28;20044;-71
2021/12/05 07:57:26;;;;;;;47.78;19.23;;;1.40;99.90;;;;;;5025022;28;20115;-72
2021/12/05 08:00:11;;;;;;;42.17;18.33;;;1.70;99.90;;;;;;5015355;28;20048;-71
2021/12/05 08:16:26;;;;;;;55.92;18.33;;;;;;;;;;5027663;28;20034;-72
2021/12/05 08:18:52;;;;;;;54.67;17.58;;;;;;;;;;5031464;28;20672;-72
2021/12/05 08:21:18;;;;;;;54.38;18.90;;;;;;;;;;5023141;28;20034;-72
2021/12/05 08:23:46;;;;;;;51.75;20.02;;;2.00;99.90;;;;;;5033882;28;20084;-73
2021/12/05 08:26:18;;;;;;;58.45;19.60;;;;;;;;;;5030505;28;20063;-73
2021/12/05 08:28:57;;;;;;;57.55;18.25;;;;;;;;;;5022478;28;20040;-73
2021/12/05 08:32:14;;;;;;;55.85;17.85;;;;;;;;;;5025484;28;20136;-73
2021/12/05 08:40:29;;;;;;;57.63;20.35;;;;;;;;;;5025021;28;20068;-71
2021/12/05 08:43:08;;;;;;;52.00;18.50;;;;;;;;;;5022832;28;20437;-72
2021/12/05 09:27:03;;;;;;;46.55;17.98;;;;;;;;;;5027619;28;20065;-71
2021/12/05 10:18:18;;;;;;;67.30;19.70;;;;;;;;;;5016039;28;20494;-71
2021/12/05 10:37:07;;;;;;;59.08;17.85;;;;;;;;;;5028684;28;20035;-70
2021/12/05 10:39:33;;;;;;;67.47;19.77;;;;;;;;;;5032604;28;20409;-71
2021/12/05 10:42:12;;;;;;;93.28;20.83;;;;;;;;;;5024398;28;20030;-70
2021/12/05 10:44:38;;;;;;;74.57;19.88;;;;;;;;;;5022669;28;20049;-70
2021/12/05 10:47:04;;;;;;;69.70;20.58;;;;;;;;;;5016178;28;20044;-71
2021/12/05 10:49:30;;;;;;;117.72;21.42;;;;;;;;;;5031424;28;20057;-71
2021/12/05 10:51:57;;;;;;;99.65;19.77;;;;;;;;;;5021534;28;20445;-71
2021/12/05 10:54:23;;;;;;;68.13;18.48;;;;;;;;;;5027007;28;20039;-70
2021/12/05 10:56:51;;;;;;;76.10;19.15;;;;;;;;;;5036472;28;20032;-71
2021/12/05 10:59:17;;;;;;;75.95;21.33;;;;;;;;;;5030017;28;20087;-70
2021/12/05 11:01:43;;;;;;;70.10;19.17;;;;;;;;;;5023827;28;20041;-70
2021/12/05 11:04:09;;;;;;;84.03;23.23;;;;;;;;;;5021344;28;20034;-70
2021/12/05 11:06:34;;;;;;;98.70;22.80;;;2.50;99.90;;;;;;5025205;28;20033;-71
2021/12/05 11:09:00;;;;;;;92.82;22.13;;;2.80;99.90;;;;;;5033926;28;20060;-71
2021/12/05 11:11:26;;;;;;;101.82;23.75;;;;;;;;;;5026405;28;20034;-71
2021/12/05 11:13:51;;;;;;;153.07;26.60;;;2.70;99.90;;;;;;5022265;28;20025;-70
2021/12/05 11:16:17;;;;;;;108.35;23.83;;;2.80;99.90;;;;;;5034799;28;20095;-70
2021/12/05 11:18:42;;;;;;;99.35;27.20;;;2.70;99.90;;;;;;5032687;28;20029;-69
2021/12/05 11:21:08;;;;;;;120.97;25.75;;;2.70;99.90;;;;;;5027808;28;20017;-70
2021/12/05 11:23:33;;;;;;;110.93;24.55;;;3.40;99.90;;;;;;5017174;28;20037;-70
2021/12/05 11:25:58;;;;;;;91.40;24.85;;;2.50;99.90;;;;;;5027106;28;20028;-70
2021/12/05 11:28:25;;;;;;;93.75;25.17;;;2.50;99.90;;;;;;5038537;28;20060;-70
2021/12/05 11:30:51;;;;;;;95.93;24.63;;;;;;;;;;5026507;28;20091;-71
2021/12/05 11:33:19;;;;;;;146.77;25.23;;;2.40;99.90;;;;;;5025843;28;20037;-69
2021/12/05 11:35:45;;;;;;;94.25;23.75;;;2.60;99.90;;;;;;5027217;28;20397;-70
2021/12/05 11:38:11;;;;;;;87.53;22.95;;;;;;;;;;5027458;28;20036;-71
2021/12/05 11:40:36;;;;;;;89.47;23.70;;;2.60;99.90;;;;;;5023306;28;20029;-69
2021/12/05 11:43:02;;;;;;;105.32;24.75;;;3.00;99.90;;;;;;5023314;28;20038;-70
2021/12/05 11:45:27;;;;;;;109.15;25.13;;;3.10;99.90;;;;;;5013432;28;20033;-71
2021/12/05 11:47:53;;;;;;;91.72;25.38;;;3.00;99.90;;;;;;5034821;28;20108;-69
2021/12/05 11:50:19;;;;;;;117.60;27.33;;;3.80;99.90;;;;;;5026082;28;20068;-70
2021/12/05 11:52:44;;;;;;;100.03;27.33;;;2.80;99.90;;;;;;5017958;28;20474;-70
2021/12/05 11:55:10;;;;;;;96.82;26.00;;;2.80;99.90;;;;;;5024122;28;20052;-70
2021/12/05 11:57:36;;;;;;;90.50;24.55;;;2.80;99.90;;;;;;5025977;28;20028;-70
2021/12/05 12:00:01;;;;;;;78.05;24.85;;;2.60;99.90;;;;;;5031801;28;20033;-69
2021/12/05 12:02:29;;;;;;;90.13;25.73;;;3.00;99.90;;;;;;5032826;28;20084;-70
2021/12/05 12:04:55;;;;;;;77.25;25.48;;;3.10;99.90;;;;;;5017550;28;20037;-70
2021/12/05 12:07:21;;;;;;;98.28;27.77;;;;;;;;;;5029082;28;20037;-69
2021/12/05 12:09:46;;;;;;;77.90;26.75;;;2.80;99.90;;;;;;5029233;28;20025;-69
2021/12/05 12:12:12;;;;;;;70.57;23.85;;;;;;;;;;5020485;28;20037;-69
2021/12/05 12:14:38;;;;;;;75.55;24.27;;;2.30;99.90;;;;;;5024777;28;20667;-69
2021/12/05 12:17:07;;;;;;;73.45;24.58;;;3.10;99.90;;;;;;5032574;28;20028;-68
2021/12/05 12:19:32;;;;;;;72.03;23.67;;;2.80;99.90;;;;;;5020664;28;20044;-70
2021/12/05 12:22:00;;;;;;;69.75;25.00;;;2.70;99.90;;;;;;5028287;28;20033;-69
2021/12/05 12:24:26;;;;;;;63.30;22.70;;;2.90;99.90;;;;;;5023411;28;20037;-69
2021/12/05 12:26:52;;;;;;;60.65;21.42;;;;;;;;;;5026183;28;20086;-70
2021/12/05 12:29:17;;;;;;;64.10;21.77;;;2.80;99.90;;;;;;5030985;28;20397;-70
2021/12/05 12:31:43;;;;;;;59.83;21.52;;;;;;;;;;5034395;28;20070;-69
2021/12/05 12:34:09;;;;;;;72.20;24.50;;;2.90;99.90;;;;;;5025310;28;20021;-69
2021/12/05 12:36:34;;;;;;;69.03;23.80;;;2.80;99.90;;;;;;5030684;28;20026;-69
2021/12/05 12:39:04;;;;;;;62.28;23.35;;;2.80;99.90;;;;;;5025479;28;20032;-69
2021/12/05 12:41:29;;;;;;;62.20;23.35;;;2.80;99.90;;;;;;5032018;28;20378;-69
2021/12/05 12:43:55;;;;;;;67.38;23.45;;;2.60;99.90;;;;;;5028028;28;20040;-68
2021/12/05 12:46:21;;;;;;;70.75;24.67;;;2.80;99.90;;;;;;5026531;28;20471;-68
2021/12/05 12:48:47;;;;;;;76.88;25.63;;;;;;;;;;5031764;28;20055;-69
2021/12/05 12:51:12;;;;;;;65.45;23.90;;;;;;;;;;5025764;28;20033;-69
2021/12/05 12:53:39;;;;;;;67.57;23.25;;;;;;;;;;5021490;28;20029;-69
2021/12/05 12:56:08;;;;;;;63.30;21.70;;;;;;;;;;5020339;28;20049;-69
2021/12/05 12:58:34;;;;;;;68.80;24.45;;;;;;;;;;5026019;28;20042;-71
2021/12/05 13:01:00;;;;;;;65.10;23.00;;;;;;;;;;5029807;28;20167;-69
2021/12/05 13:04:05;;;;;;;72.40;25.13;;;;;;;;;;5027322;28;20033;-70
2021/12/05 13:11:53;;;;;;;69.40;25.13;;;;;;;;;;5027746;28;20243;-69
2021/12/05 13:14:19;;;;;;;62.03;22.45;;;;;;;;;;5023440;28;20462;-69
2021/12/05 13:16:46;;;;;;;62.15;22.40;;;;;;;;;;5022334;28;20120;-70
2021/12/05 13:19:12;;;;;;;63.00;23.00;;;;;;;;;;5028996;28;20088;-70
2021/12/05 13:21:39;;;;;;;65.70;24.20;;;;;;;;;;5033551;28;20037;-69
2021/12/05 13:24:05;;;;;;;63.28;23.05;;;2.30;99.90;;;;;;5026318;28;20512;-70
2021/12/05 13:26:32;;;;;;;58.13;21.80;;;;;;;;;;5018537;28;20045;-70
2021/12/05 13:28:58;;;;;;;64.85;23.20;;;;;;;;;;5023486;28;20091;-70
2021/12/05 13:31:24;;;;;;;61.90;21.73;;;;;;;;;;5027244;28;20033;-70
2021/12/05 13:33:50;;;;;;;59.97;22.40;;;;;;;;;;5026990;28;20041;-70
2021/12/05 13:36:16;;;;;;;63.67;22.77;;;;;;;;;;5013636;28;20058;-70
2021/12/05 13:38:42;;;;;;;68.57;23.55;;;;;;;;;;5028390;28;20044;-70
2021/12/05 13:41:08;;;;;;;63.30;23.15;;;;;;;;;;5028447;28;20022;-64
2021/12/05 13:43:34;;;;;;;60.15;20.58;;;;;;;;;;5011264;28;20672;-64
2021/12/05 13:46:01;;;;;;;59.38;20.75;;;;;;;;;;5007466;28;20108;-64
2021/12/05 13:48:29;;;;;;;62.50;20.65;;;;;;;;;;5032980;28;20036;-64
2021/12/05 13:50:57;;;;;;;56.55;20.45;;;;;;;;;;5026260;28;20075;-64
2021/12/05 13:53:23;;;;;;;58.42;21.10;;;;;;;;;;5027470;28;20041;-64
2021/12/05 13:56:02;;;;;;;57.80;20.50;;;;;;;;;;5024614;28;20040;-64
2021/12/05 13:58:32;;;;;;;54.70;20.35;;;;;;;;;;5034425;28;20474;-67
2021/12/05 14:00:58;;;;;;;63.17;23.00;;;;;;;;;;5033406;28;20441;-65
2021/12/05 14:03:24;;;;;;;65.28;22.25;;;;;;;;;;5027208;28;20072;-64
2021/12/05 14:05:50;;;;;;;62.60;23.42;;;;;;;;;;5026721;28;20029;-65
2021/12/05 14:08:16;;;;;;;83.32;28.38;;;;;;;;;;5025668;28;20033;-64
2021/12/05 14:10:43;;;;;;;74.32;26.88;;;;;;;;;;5036380;28;20025;-64
2021/12/05 14:13:09;;;;;;;79.22;26.52;;;;;;;;;;5028613;28;20036;-64
2021/12/05 14:15:35;;;;;;;75.80;27.65;;;;;;;;;;5019039;28;20026;-65
2021/12/05 14:18:01;;;;;;;91.35;27.42;;;;;;;;;;5024258;28;20040;-64
2021/12/05 14:20:29;;;;;;;98.50;30.58;;;;;;;;;;5027729;28;20065;-64
2021/12/05 14:22:56;;;;;;;82.40;29.02;;;;;;;;;;5021098;28;20705;-64
2021/12/05 14:25:22;;;;;;;85.38;28.10;;;;;;;;;;5022379;28;20115;-64
2021/12/05 14:27:48;;;;;;;87.22;29.48;;;;;;;;;;5022651;28;20525;-64
2021/12/05 14:30:14;;;;;;;87.97;29.20;;;;;;;;;;5037221;28;20037;-64
2021/12/05 14:32:40;;;;;;;92.93;30.95;;;;;;;;;;5025927;28;20456;-64
2021/12/05 14:35:06;;;;;;;85.15;29.52;;;;;;;;;;5023720;28;20099;-64
2021/12/05 14:37:33;;;;;;;90.22;30.80;;;;;;;;;;5015301;28;20397;-64
2021/12/05 14:39:59;;;;;;;89.22;31.33;;;;;;;;;;5026126;28;20608;-64
2021/12/05 14:42:25;;;;;;;85.28;29.33;;;;;;;;;;5022118;28;20786;-64
2021/12/05 14:44:51;;;;;;;78.20;27.63;;;;;;;;;;5021038;28;20057;-64
2021/12/05 14:47:17;;;;;;;75.00;27.13;;;;;;;;;;5022450;28;20528;-64
2021/12/05 14:49:43;;;;;;;77.70;27.40;;;;;;;;;;5026486;28;20106;-64
2021/12/05 14:52:09;;;;;;;77.10;27.73;;;;;;;;;;5026546;28;20036;-64
2021/12/05 14:54:35;;;;;;;84.78;29.88;;;;;;;;;;5023098;28;20508;-64
2021/12/05 14:57:01;;;;;;;71.47;26.92;;;;;;;;;;5019575;28;20474;-64
2021/12/05 14:59:27;;;;;;;71.22;26.80;;;;;;;;;;5021860;28;20037;-64
2021/12/05 15:01:53;;;;;;;69.47;26.58;;;;;;;;;;5024689;28;20041;-64
2021/12/05 15:04:19;;;;;;;73.30;26.90;;;;;;;;;;5025572;28;20032;-64
2021/12/05 15:06:44;;;;;;;73.35;26.42;;;1.90;99.90;;;;;;5020283;28;20030;-64
2021/12/05 15:09:10;;;;;;;70.32;26.00;;;;;;;;;;5023879;28;20484;-64
2021/12/05 15:11:36;;;;;;;83.03;29.52;;;;;;;;;;5031664;28;20026;-64
2021/12/05 15:14:02;;;;;;;73.97;25.80;;;;;;;;;;5024011;28;20071;-64
2021/12/05 15:16:28;;;;;;;75.57;27.63;;;;;;;;;;5022615;28;20029;-64
2021/12/05 15:18:54;;;;;;;74.93;28.38;;;;;;;;;;5014787;28;20021;-64
2021/12/05 15:21:21;;;;;;;81.72;28.80;;;;;;;;;;5034609;28;20811;-64
2021/12/05 15:23:47;;;;;;;76.75;27.42;;;;;;;;;;5021201;28;20036;-64
2021/12/05 15:26:14;;;;;;;79.85;28.55;;;;;;;;;;5020620;28;20030;-64
2021/12/05 15:28:40;;;;;;;84.43;30.27;;;;;;;;;;5023258;28;20021;-67
2021/12/05 15:31:06;;;;;;;80.85;29.92;;;;;;;;;;5029365;28;20112;-64
2021/12/05 15:33:34;;;;;;;77.57;30.13;;;;;;;;;;5024429;28;20104;-65
2021/12/05 15:36:00;;;;;;;76.10;29.05;;;;;;;;;;5020736;28;20044;-64
2021/12/05 15:38:27;;;;;;;75.47;26.80;;;;;;;;;;5019689;28;21617;-64
2021/12/05 15:40:53;;;;;;;82.90;28.88;;;;;;;;;;5029227;28;20048;-64
2021/12/05 15:43:19;;;;;;;82.85;30.35;;;;;;;;;;5021983;28;20038;-64
2021/12/05 15:45:45;;;;;;;82.78;30.85;;;;;;;;;;5033795;28;20098;-64
2021/12/05 15:48:11;;;;;;;82.75;29.90;;;;;;;;;;5028857;28;20036;-66
2021/12/05 15:50:40;;;;;;;81.95;30.42;;;;;;;;;;5030895;28;20083;-64
2021/12/05 15:53:06;;;;;;;77.07;29.92;;;;;;;;;;5036600;28;20024;-64
2021/12/05 15:55:31;;;;;;;80.13;31.50;;;1.30;99.90;;;;;;5025172;28;20110;-64
2021/12/05 15:57:57;;;;;;;92.07;33.33;;;;;;;;;;5030808;28;20381;-64
2021/12/05 16:00:23;;;;;;;81.90;31.17;;;;;;;;;;5032852;28;20032;-64
2021/12/05 16:02:49;;;;;;;78.35;30.40;;;;;;;;;;5039174;28;20552;-64
2021/12/05 16:05:15;;;;;;;76.55;29.88;;;;;;;;;;5032743;28;20056;-64
2021/12/05 16:07:41;;;;;;;73.00;27.23;;;;;;;;;;5031804;28;20788;-64
2021/12/05 16:10:07;;;;;;;78.55;29.75;;;;;;;;;;5034779;28;20036;-64
2021/12/05 16:12:33;;;;;;;76.90;29.85;;;2.10;99.90;;;;;;5030496;28;20029;-64
2021/12/05 16:14:59;;;;;;;77.45;31.48;;;;;;;;;;5035479;28;20061;-64
2021/12/05 16:17:25;;;;;;;69.95;28.80;;;;;;;;;;5032923;28;20090;-64
2021/12/05 16:19:51;;;;;;;76.05;30.38;;;;;;;;;;5032599;28;20033;-64
2021/12/05 16:22:17;;;;;;;79.13;31.50;;;;;;;;;;5040177;28;20514;-64
2021/12/05 16:24:43;;;;;;;78.30;30.88;;;;;;;;;;5036384;28;20094;-64
2021/12/05 16:27:09;;;;;;;80.07;28.33;;;;;;;;;;5031428;28;20033;-65
2021/12/05 16:29:35;;;;;;;90.32;32.53;;;;;;;;;;5027602;28;20160;-64
2021/12/05 16:32:01;;;;;;;77.55;30.77;;;;;;;;;;5040936;28;20036;-64
2021/12/05 16:34:27;;;;;;;81.90;31.13;;;;;;;;;;5038565;28;20030;-77
2021/12/05 16:36:53;;;;;;;84.20;30.90;;;;;;;;;;5033408;28;20045;-64
2021/12/05 16:39:19;;;;;;;81.03;30.08;;;;;;;;;;5028325;28;20037;-65
2021/12/05 16:41:45;;;;;;;77.80;28.73;;;;;;;;;;5031826;28;20090;-64
2021/12/05 16:44:12;;;;;;;76.95;28.48;;;;;;;;;;5025499;28;20037;-64
2021/12/05 16:46:40;;;;;;;74.47;28.98;;;;;;;;;;5005210;28;20128;-64
2021/12/05 16:49:06;;;;;;;79.30;30.00;;;;;;;;;;5024362;28;20116;-64
2021/12/05 16:51:34;;;;;;;69.05;26.95;;;;;;;;;;5032016;28;20785;-64
2021/12/05 16:54:03;;;;;;;74.35;27.75;;;;;;;;;;5026088;28;20029;-64
2021/12/05 16:56:29;;;;;;;70.50;27.45;;;;;;;;;;5028044;28;20033;-64
2021/12/05 16:58:55;;;;;;;77.65;30.70;;;;;;;;;;5030298;28;20037;-64
2021/12/05 17:01:21;;;;;;;70.05;29.08;;;;;;;;;;5033361;28;20063;-64
2021/12/05 17:03:47;;;;;;;84.63;31.45;;;;;;;;;;5040645;28;20028;-64
2021/12/05 17:06:14;;;;;;;67.35;26.83;;;;;;;;;;5034937;28;20053;-64
2021/12/05 17:08:44;;;;;;;77.70;28.52;;;2.00;99.90;;;;;;5026719;28;20033;-64
2021/12/05 17:11:10;;;;;;;71.43;29.23;;;;;;;;;;5032232;28;20103;-64
2021/12/05 17:13:36;;;;;;;72.60;29.30;;;;;;;;;;5038542;28;20030;-64
2021/12/05 17:16:02;;;;;;;70.55;28.10;;;;;;;;;;5034487;28;20035;-64
2021/12/05 17:18:29;;;;;;;78.93;30.88;;;;;;;;;;5031240;28;20044;-64
2021/12/05 17:20:55;;;;;;;86.68;32.72;;;;;;;;;;5030297;28;20057;-64
2021/12/05 17:23:21;;;;;;;85.97;30.13;;;;;;;;;;5034204;28;20048;-64
2021/12/05 17:25:47;;;;;;;68.07;27.15;;;;;;;;;;5033752;28;20029;-65
2021/12/05 17:28:13;;;;;;;96.93;31.30;;;;;;;;;;5032105;28;20068;-64
2021/12/05 17:30:39;;;;;;;73.25;28.02;;;;;;;;;;5023816;28;20029;-64
2021/12/05 17:33:06;;;;;;;76.72;28.83;;;;;;;;;;5041059;28;20136;-64
2021/12/05 17:35:32;;;;;;;84.95;30.27;;;;;;;;;;5025690;28;20034;-64
2021/12/05 17:37:58;;;;;;;73.93;28.02;;;;;;;;;;5031425;28;20021;-64
2021/12/05 17:40:26;;;;;;;80.25;29.65;;;;;;;;;;5026380;28;20091;-64
2021/12/05 17:42:52;;;;;;;66.53;27.42;;;;;;;;;;5037552;28;20037;-64
2021/12/05 17:45:18;;;;;;;80.43;29.98;;;;;;;;;;5037059;28;20124;-64
2021/12/05 17:47:44;;;;;;;80.13;28.17;;;;;;;;;;5033605;28;20029;-64
2021/12/05 17:50:10;;;;;;;81.47;29.05;;;;;;;;;;5026917;28;20040;-64
2021/12/05 17:52:36;;;;;;;78.93;29.45;;;;;;;;;;5031377;28;20025;-64
2021/12/05 17:55:18;;;;;;;73.22;28.08;;;;;;;;;;5030446;28;20458;-64
2021/12/05 17:57:57;;;;;;;79.55;29.63;;;;;;;;;;5028003;28;20025;-64
2021/12/05 18:00:57;;;;;;;79.93;28.83;;;;;;;;;;5026241;28;20046;-64
2021/12/05 18:03:09;;;;;;;76.68;29.65;;;;;;;;;;5035650;28;20056;-66
2021/12/05 18:05:35;;;;;;;73.10;28.30;;;;;;;;;;5033074;28;20030;-64
2021/12/05 18:08:01;;;;;;;66.57;27.00;;;;;;;;;;5032167;28;20062;-64
2021/12/05 18:10:28;;;;;;;67.32;26.60;;;;;;;;;;5026075;28;20087;-64
2021/12/05 18:12:58;;;;;;;78.57;30.77;;;;;;;;;;5036408;28;20079;-63
2021/12/05 18:15:27;;;;;;;70.50;28.40;;;;;;;;;;5037819;28;20032;-63
2021/12/05 18:17:53;;;;;;;83.72;29.88;;;;;;;;;;5026466;28;20039;-63
2021/12/05 18:20:22;;;;;;;80.80;29.20;;;;;;;;;;5027952;28;20494;-64
2021/12/05 18:22:48;;;;;;;73.25;29.25;;;;;;;;;;5033624;28;20040;-63
2021/12/05 18:25:14;;;;;;;70.68;28.67;;;;;;;;;;5035742;28;20033;-64
2021/12/05 18:27:40;;;;;;;76.32;29.67;;;;;;;;;;5028079;28;20481;-63
2021/12/05 18:30:06;;;;;;;74.65;28.60;;;;;;;;;;5028845;28;20100;-63
2021/12/05 18:32:33;;;;;;;76.82;29.08;;;;;;;;;;5028171;28;20444;-64
2021/12/05 18:34:59;;;;;;;68.57;28.17;;;;;;;;;;5035743;28;20033;-64
2021/12/05 18:37:25;;;;;;;70.55;27.42;;;;;;;;;;5033809;28;20086;-64
2021/12/05 18:39:52;;;;;;;77.30;29.85;;;;;;;;;;5029637;28;20029;-64
2021/12/05 18:42:18;;;;;;;76.97;28.95;;;;;;;;;;5030095;28;20037;-64
2021/12/05 18:44:48;;;;;;;86.47;30.95;;;;;;;;;;5036440;28;20060;-64
2021/12/05 18:47:15;;;;;;;78.20;29.95;;;;;;;;;;5029950;28;20068;-63
2021/12/05 18:49:41;;;;;;;84.78;32.25;;;;;;;;;;5028688;28;20467;-63
2021/12/05 18:52:07;;;;;;;80.03;30.45;;;;;;;;;;5026360;28;20129;-63
2021/12/05 18:54:35;;;;;;;83.00;30.55;;;;;;;;;;5036321;28;20492;-64
2021/12/05 18:57:01;;;;;;;88.57;30.90;;;;;;;;;;5032581;28;20106;-64
2021/12/05 18:59:31;;;;;;;88.38;33.22;;;;;;;;;;5027345;28;20033;-64
2021/12/05 19:04:48;;;;;;;91.73;32.33;;;;;;;;;;5035021;28;20134;-64
2021/12/05 19:07:19;;;;;;;100.80;33.35;;;;;;;;;;5033306;28;20845;-64
2021/12/05 19:12:17;;;;;;;88.05;30.60;;;;;;;;;;5022544;28;20029;-63
2021/12/05 19:14:43;;;;;;;96.97;32.85;;;;;;;;;;5032131;28;20840;-64
2021/12/05 19:17:09;;;;;;;100.72;33.60;;;;;;;;;;5030528;28;20109;-63
2021/12/05 19:19:35;;;;;;;88.47;31.30;;;;;;;;;;5028041;28;20508;-64
2021/12/05 19:22:01;;;;;;;103.82;34.28;;;;;;;;;;5023872;28;20117;-64
2021/12/05 19:24:30;;;;;;;99.70;32.67;;;;;;;;;;5038619;28;20079;-63
2021/12/05 19:26:58;;;;;;;92.35;31.58;;;;;;;;;;5031830;28;20059;-63